sensor_id;sensor_type;location;lat;lon;timestamp;P1;durP1;ratioP1;P2;durP2;ratioP2
83026;SDS011;72842;56.038;12.706;2024-01-30T00:01:22;7.85;;;3.97;;
83026;SDS011;72842;56.038;12.706;2024-01-30T00:03:47;5.90;;;3.88;;
83026;SDS011;72842;56.038;12.706;2024-01-30T00:06:12;5.68;;;4.50;;
83026;SDS011;72842;56.038;12.706;2024-01-30T00:08:38;5.07;;;4.50;;
83026;SDS011;72842;56.038;12.706;2024-01-30T00:11:03;5.85;;;4.43;;
83026;SDS011;72842;56.038;12.706;2024-01-30T00:13:29;6.20;;;4.20;;
83026;SDS011;72842;56.038;12.706;2024-01-30T00:15:54;4.63;;;3.70;;
83026;SDS011;72842;56.038;12.706;2024-01-30T00:18:20;5.45;;;4.55;;
83026;SDS011;72842;56.038;12.706;2024-01-30T00:20:45;6.28;;;4.32;;
83026;SDS011;72842;56.038;12.706;2024-01-30T00:23:10;6.80;;;4.93;;
83026;SDS011;72842;56.038;12.706;2024-01-30T00:25:36;5.05;;;4.15;;
83026;SDS011;72842;56.038;12.706;2024-01-30T00:28:01;5.43;;;4.13;;
83026;SDS011;72842;56.038;12.706;2024-01-30T00:30:27;4.97;;;4.15;;
83026;SDS011;72842;56.038;12.706;2024-01-30T00:32:53;6.53;;;5.13;;
83026;SDS011;72842;56.038;12.706;2024-01-30T00:35:18;6.72;;;4.65;;
83026;SDS011;72842;56.038;12.706;2024-01-30T00:37:44;7.85;;;4.97;;
83026;SDS011;72842;56.038;12.706;2024-01-30T00:40:09;8.77;;;5.53;;
83026;SDS011;72842;56.038;12.706;2024-01-30T00:42:40;7.00;;;4.45;;
83026;SDS011;72842;56.038;12.706;2024-01-30T00:45:15;6.97;;;5.00;;
83026;SDS011;72842;56.038;12.706;2024-01-30T00:47:41;5.82;;;4.75;;
83026;SDS011;72842;56.038;12.706;2024-01-30T00:50:07;6.05;;;4.93;;
83026;SDS011;72842;56.038;12.706;2024-01-30T00:52:32;6.65;;;5.03;;
83026;SDS011;72842;56.038;12.706;2024-01-30T00:54:58;6.13;;;4.50;;
83026;SDS011;72842;56.038;12.706;2024-01-30T00:57:27;6.43;;;4.80;;
83026;SDS011;72842;56.038;12.706;2024-01-30T00:59:53;7.72;;;5.28;;
83026;SDS011;72842;56.038;12.706;2024-01-30T01:02:18;8.82;;;5.18;;
83026;SDS011;72842;56.038;12.706;2024-01-30T01:04:44;7.40;;;4.80;;
83026;SDS011;72842;56.038;12.706;2024-01-30T01:07:10;6.82;;;4.90;;
83026;SDS011;72842;56.038;12.706;2024-01-30T01:09:36;9.32;;;5.45;;
83026;SDS011;72842;56.038;12.706;2024-01-30T01:12:01;8.05;;;4.63;;
83026;SDS011;72842;56.038;12.706;2024-01-30T01:14:27;7.90;;;5.18;;
83026;SDS011;72842;56.038;12.706;2024-01-30T01:16:53;8.48;;;5.25;;
83026;SDS011;72842;56.038;12.706;2024-01-30T01:19:18;7.63;;;5.63;;
83026;SDS011;72842;56.038;12.706;2024-01-30T01:21:43;6.90;;;5.45;;
83026;SDS011;72842;56.038;12.706;2024-01-30T01:24:09;10.52;;;6.10;;
83026;SDS011;72842;56.038;12.706;2024-01-30T01:26:34;10.07;;;6.50;;
83026;SDS011;72842;56.038;12.706;2024-01-30T01:29:00;9.43;;;5.53;;
83026;SDS011;72842;56.038;12.706;2024-01-30T01:31:25;8.38;;;5.65;;
83026;SDS011;72842;56.038;12.706;2024-01-30T01:33:54;8.98;;;5.95;;
83026;SDS011;72842;56.038;12.706;2024-01-30T01:36:20;12.00;;;7.35;;
83026;SDS011;72842;56.038;12.706;2024-01-30T01:38:45;10.10;;;7.30;;
83026;SDS011;72842;56.038;12.706;2024-01-30T01:41:11;10.00;;;6.93;;
83026;SDS011;72842;56.038;12.706;2024-01-30T01:43:36;11.73;;;7.88;;
83026;SDS011;72842;56.038;12.706;2024-01-30T01:46:04;12.18;;;6.97;;
83026;SDS011;72842;56.038;12.706;2024-01-30T01:48:30;11.13;;;7.72;;
83026;SDS011;72842;56.038;12.706;2024-01-30T01:50:55;13.55;;;8.43;;
83026;SDS011;72842;56.038;12.706;2024-01-30T01:53:21;11.73;;;7.72;;
83026;SDS011;72842;56.038;12.706;2024-01-30T01:55:47;12.18;;;7.47;;
83026;SDS011;72842;56.038;12.706;2024-01-30T01:58:13;13.63;;;8.35;;
83026;SDS011;72842;56.038;12.706;2024-01-30T02:00:39;14.38;;;8.80;;
83026;SDS011;72842;56.038;12.706;2024-01-30T02:03:06;14.43;;;8.32;;
83026;SDS011;72842;56.038;12.706;2024-01-30T02:05:35;14.93;;;9.13;;
83026;SDS011;72842;56.038;12.706;2024-01-30T02:08:01;15.90;;;8.93;;
83026;SDS011;72842;56.038;12.706;2024-01-30T02:10:28;16.40;;;9.25;;
83026;SDS011;72842;56.038;12.706;2024-01-30T02:12:53;14.50;;;9.25;;
83026;SDS011;72842;56.038;12.706;2024-01-30T02:15:19;17.45;;;9.50;;
83026;SDS011;72842;56.038;12.706;2024-01-30T02:17:44;14.88;;;8.57;;
83026;SDS011;72842;56.038;12.706;2024-01-30T02:20:10;14.25;;;9.05;;
83026;SDS011;72842;56.038;12.706;2024-01-30T02:22:35;15.57;;;10.30;;
83026;SDS011;72842;56.038;12.706;2024-01-30T02:25:02;16.25;;;9.45;;
83026;SDS011;72842;56.038;12.706;2024-01-30T02:27:28;18.58;;;10.45;;
83026;SDS011;72842;56.038;12.706;2024-01-30T02:29:53;16.67;;;10.18;;
83026;SDS011;72842;56.038;12.706;2024-01-30T02:32:19;13.93;;;9.45;;
83026;SDS011;72842;56.038;12.706;2024-01-30T02:34:44;17.40;;;10.45;;
83026;SDS011;72842;56.038;12.706;2024-01-30T02:37:10;16.60;;;9.40;;
83026;SDS011;72842;56.038;12.706;2024-01-30T02:39:35;15.15;;;9.85;;
83026;SDS011;72842;56.038;12.706;2024-01-30T02:42:00;16.55;;;9.68;;
83026;SDS011;72842;56.038;12.706;2024-01-30T02:44:26;16.92;;;10.93;;
83026;SDS011;72842;56.038;12.706;2024-01-30T02:46:51;14.85;;;10.68;;
83026;SDS011;72842;56.038;12.706;2024-01-30T02:49:19;17.85;;;10.05;;
83026;SDS011;72842;56.038;12.706;2024-01-30T02:51:44;20.20;;;10.82;;
83026;SDS011;72842;56.038;12.706;2024-01-30T02:54:10;16.70;;;9.65;;
83026;SDS011;72842;56.038;12.706;2024-01-30T02:56:35;22.45;;;11.60;;
83026;SDS011;72842;56.038;12.706;2024-01-30T02:59:01;18.50;;;11.35;;
83026;SDS011;72842;56.038;12.706;2024-01-30T03:01:26;21.25;;;11.52;;
83026;SDS011;72842;56.038;12.706;2024-01-30T03:03:51;19.63;;;11.38;;
83026;SDS011;72842;56.038;12.706;2024-01-30T03:06:17;19.13;;;10.57;;
83026;SDS011;72842;56.038;12.706;2024-01-30T03:08:45;17.27;;;11.00;;
83026;SDS011;72842;56.038;12.706;2024-01-30T03:11:10;16.23;;;10.48;;
83026;SDS011;72842;56.038;12.706;2024-01-30T03:13:36;17.55;;;10.73;;
83026;SDS011;72842;56.038;12.706;2024-01-30T03:16:01;20.35;;;11.80;;
83026;SDS011;72842;56.038;12.706;2024-01-30T03:18:26;22.55;;;11.60;;
83026;SDS011;72842;56.038;12.706;2024-01-30T03:20:52;20.42;;;11.20;;
83026;SDS011;72842;56.038;12.706;2024-01-30T03:23:17;24.58;;;12.48;;
83026;SDS011;72842;56.038;12.706;2024-01-30T03:25:43;19.00;;;11.15;;
83026;SDS011;72842;56.038;12.706;2024-01-30T03:28:08;22.55;;;10.90;;
83026;SDS011;72842;56.038;12.706;2024-01-30T03:30:34;21.25;;;12.10;;
83026;SDS011;72842;56.038;12.706;2024-01-30T03:32:59;22.38;;;12.13;;
83026;SDS011;72842;56.038;12.706;2024-01-30T03:35:25;23.52;;;11.65;;
83026;SDS011;72842;56.038;12.706;2024-01-30T03:37:50;20.42;;;11.65;;
83026;SDS011;72842;56.038;12.706;2024-01-30T03:40:15;17.55;;;11.30;;
83026;SDS011;72842;56.038;12.706;2024-01-30T03:42:41;20.77;;;12.85;;
83026;SDS011;72842;56.038;12.706;2024-01-30T03:45:07;23.85;;;12.63;;
83026;SDS011;72842;56.038;12.706;2024-01-30T03:47:32;23.60;;;12.27;;
83026;SDS011;72842;56.038;12.706;2024-01-30T03:49:58;20.33;;;10.82;;
83026;SDS011;72842;56.038;12.706;2024-01-30T03:52:23;21.75;;;11.18;;
83026;SDS011;72842;56.038;12.706;2024-01-30T03:54:49;19.58;;;12.23;;
83026;SDS011;72842;56.038;12.706;2024-01-30T03:57:14;21.15;;;12.38;;
83026;SDS011;72842;56.038;12.706;2024-01-30T03:59:41;19.75;;;11.45;;
83026;SDS011;72842;56.038;12.706;2024-01-30T04:02:07;21.65;;;12.80;;
83026;SDS011;72842;56.038;12.706;2024-01-30T04:04:32;26.45;;;13.02;;
83026;SDS011;72842;56.038;12.706;2024-01-30T04:06:58;26.67;;;13.35;;
83026;SDS011;72842;56.038;12.706;2024-01-30T04:09:23;25.42;;;13.38;;
83026;SDS011;72842;56.038;12.706;2024-01-30T04:11:51;23.92;;;12.40;;
83026;SDS011;72842;56.038;12.706;2024-01-30T04:14:16;23.92;;;13.38;;
83026;SDS011;72842;56.038;12.706;2024-01-30T04:16:42;24.83;;;13.45;;
83026;SDS011;72842;56.038;12.706;2024-01-30T04:19:07;24.73;;;12.38;;
83026;SDS011;72842;56.038;12.706;2024-01-30T04:21:33;27.02;;;14.02;;
83026;SDS011;72842;56.038;12.706;2024-01-30T04:23:58;24.50;;;13.65;;
83026;SDS011;72842;56.038;12.706;2024-01-30T04:26:24;26.90;;;14.27;;
83026;SDS011;72842;56.038;12.706;2024-01-30T04:28:49;26.33;;;13.85;;
83026;SDS011;72842;56.038;12.706;2024-01-30T04:31:15;28.65;;;13.85;;
83026;SDS011;72842;56.038;12.706;2024-01-30T04:33:40;26.17;;;12.90;;
83026;SDS011;72842;56.038;12.706;2024-01-30T04:36:07;26.90;;;13.88;;
83026;SDS011;72842;56.038;12.706;2024-01-30T04:38:35;28.27;;;14.13;;
83026;SDS011;72842;56.038;12.706;2024-01-30T04:41:00;26.52;;;13.80;;
83026;SDS011;72842;56.038;12.706;2024-01-30T04:43:26;30.17;;;13.77;;
83026;SDS011;72842;56.038;12.706;2024-01-30T04:45:52;26.70;;;13.65;;
83026;SDS011;72842;56.038;12.706;2024-01-30T04:48:17;27.95;;;14.70;;
83026;SDS011;72842;56.038;12.706;2024-01-30T04:50:43;25.95;;;14.70;;
83026;SDS011;72842;56.038;12.706;2024-01-30T04:53:08;29.90;;;14.10;;
83026;SDS011;72842;56.038;12.706;2024-01-30T04:55:34;32.40;;;14.57;;
83026;SDS011;72842;56.038;12.706;2024-01-30T04:58:00;28.83;;;15.30;;
83026;SDS011;72842;56.038;12.706;2024-01-30T05:00:26;31.35;;;15.95;;
83026;SDS011;72842;56.038;12.706;2024-01-30T05:02:51;31.25;;;14.93;;
83026;SDS011;72842;56.038;12.706;2024-01-30T05:05:17;34.55;;;14.65;;
83026;SDS011;72842;56.038;12.706;2024-01-30T05:07:42;29.80;;;14.55;;
83026;SDS011;72842;56.038;12.706;2024-01-30T05:10:08;26.33;;;14.68;;
83026;SDS011;72842;56.038;12.706;2024-01-30T05:12:33;29.95;;;15.60;;
83026;SDS011;72842;56.038;12.706;2024-01-30T05:14:59;26.40;;;14.73;;
83026;SDS011;72842;56.038;12.706;2024-01-30T05:17:24;30.08;;;15.02;;
83026;SDS011;72842;56.038;12.706;2024-01-30T05:19:50;29.27;;;13.52;;
83026;SDS011;72842;56.038;12.706;2024-01-30T05:22:15;33.75;;;15.25;;
83026;SDS011;72842;56.038;12.706;2024-01-30T05:24:43;31.50;;;15.93;;
83026;SDS011;72842;56.038;12.706;2024-01-30T05:27:08;29.05;;;15.05;;
83026;SDS011;72842;56.038;12.706;2024-01-30T05:29:33;28.83;;;14.25;;
83026;SDS011;72842;56.038;12.706;2024-01-30T05:31:59;28.08;;;15.68;;
83026;SDS011;72842;56.038;12.706;2024-01-30T05:34:24;29.88;;;15.50;;
83026;SDS011;72842;56.038;12.706;2024-01-30T05:36:50;28.70;;;14.73;;
83026;SDS011;72842;56.038;12.706;2024-01-30T05:39:15;28.90;;;15.45;;
83026;SDS011;72842;56.038;12.706;2024-01-30T05:41:41;28.98;;;14.23;;
83026;SDS011;72842;56.038;12.706;2024-01-30T05:44:06;28.02;;;13.88;;
83026;SDS011;72842;56.038;12.706;2024-01-30T05:46:32;30.08;;;15.00;;
83026;SDS011;72842;56.038;12.706;2024-01-30T05:48:58;27.83;;;14.75;;
83026;SDS011;72842;56.038;12.706;2024-01-30T05:51:23;29.13;;;14.48;;
83026;SDS011;72842;56.038;12.706;2024-01-30T05:53:49;30.35;;;15.05;;
83026;SDS011;72842;56.038;12.706;2024-01-30T05:56:14;26.02;;;13.95;;
83026;SDS011;72842;56.038;12.706;2024-01-30T05:58:40;28.38;;;14.60;;
83026;SDS011;72842;56.038;12.706;2024-01-30T06:01:08;29.98;;;14.75;;
83026;SDS011;72842;56.038;12.706;2024-01-30T06:03:34;28.80;;;14.82;;
83026;SDS011;72842;56.038;12.706;2024-01-30T06:06:00;35.00;;;16.50;;
83026;SDS011;72842;56.038;12.706;2024-01-30T06:08:25;33.90;;;14.52;;
83026;SDS011;72842;56.038;12.706;2024-01-30T06:10:51;28.70;;;13.88;;
83026;SDS011;72842;56.038;12.706;2024-01-30T06:13:17;28.60;;;14.77;;
83026;SDS011;72842;56.038;12.706;2024-01-30T06:15:42;29.08;;;15.07;;
83026;SDS011;72842;56.038;12.706;2024-01-30T06:18:08;33.70;;;15.25;;
83026;SDS011;72842;56.038;12.706;2024-01-30T06:20:33;31.48;;;14.90;;
83026;SDS011;72842;56.038;12.706;2024-01-30T06:22:59;29.23;;;15.32;;
83026;SDS011;72842;56.038;12.706;2024-01-30T06:25:24;27.60;;;14.07;;
83026;SDS011;72842;56.038;12.706;2024-01-30T06:27:50;28.90;;;15.00;;
83026;SDS011;72842;56.038;12.706;2024-01-30T06:30:15;28.70;;;13.85;;
83026;SDS011;72842;56.038;12.706;2024-01-30T06:32:41;27.75;;;13.45;;
83026;SDS011;72842;56.038;12.706;2024-01-30T06:35:06;28.35;;;14.30;;
83026;SDS011;72842;56.038;12.706;2024-01-30T06:37:33;31.48;;;15.80;;
83026;SDS011;72842;56.038;12.706;2024-01-30T06:39:58;29.67;;;15.02;;
83026;SDS011;72842;56.038;12.706;2024-01-30T06:42:23;36.20;;;16.70;;
83026;SDS011;72842;56.038;12.706;2024-01-30T06:44:49;32.75;;;15.52;;
83026;SDS011;72842;56.038;12.706;2024-01-30T06:47:14;31.13;;;15.52;;
83026;SDS011;72842;56.038;12.706;2024-01-30T06:49:40;35.65;;;17.25;;
83026;SDS011;72842;56.038;12.706;2024-01-30T06:52:07;32.85;;;15.23;;
83026;SDS011;72842;56.038;12.706;2024-01-30T06:54:33;32.58;;;15.68;;
83026;SDS011;72842;56.038;12.706;2024-01-30T06:56:58;36.28;;;16.25;;
83026;SDS011;72842;56.038;12.706;2024-01-30T06:59:24;30.17;;;15.85;;
83026;SDS011;72842;56.038;12.706;2024-01-30T07:01:49;34.35;;;16.08;;
83026;SDS011;72842;56.038;12.706;2024-01-30T07:04:15;32.65;;;15.57;;
83026;SDS011;72842;56.038;12.706;2024-01-30T07:06:41;33.63;;;15.38;;
83026;SDS011;72842;56.038;12.706;2024-01-30T07:09:06;32.38;;;16.27;;
83026;SDS011;72842;56.038;12.706;2024-01-30T07:11:33;35.15;;;16.63;;
83026;SDS011;72842;56.038;12.706;2024-01-30T07:13:59;36.08;;;17.10;;
83026;SDS011;72842;56.038;12.706;2024-01-30T07:16:24;30.40;;;14.57;;
83026;SDS011;72842;56.038;12.706;2024-01-30T07:18:50;36.75;;;15.05;;
83026;SDS011;72842;56.038;12.706;2024-01-30T07:21:15;30.50;;;14.55;;
83026;SDS011;72842;56.038;12.706;2024-01-30T07:23:41;35.75;;;16.13;;
83026;SDS011;72842;56.038;12.706;2024-01-30T07:26:07;29.30;;;15.20;;
83026;SDS011;72842;56.038;12.706;2024-01-30T07:28:33;34.85;;;15.60;;
83026;SDS011;72842;56.038;12.706;2024-01-30T07:30:59;33.35;;;16.40;;
83026;SDS011;72842;56.038;12.706;2024-01-30T07:33:28;36.33;;;15.77;;
83026;SDS011;72842;56.038;12.706;2024-01-30T07:35:53;35.22;;;16.52;;
83026;SDS011;72842;56.038;12.706;2024-01-30T07:38:19;35.38;;;15.88;;
83026;SDS011;72842;56.038;12.706;2024-01-30T07:40:45;36.50;;;15.40;;
83026;SDS011;72842;56.038;12.706;2024-01-30T07:43:11;34.30;;;16.90;;
83026;SDS011;72842;56.038;12.706;2024-01-30T07:45:36;35.85;;;16.48;;
83026;SDS011;72842;56.038;12.706;2024-01-30T07:48:04;34.80;;;15.57;;
83026;SDS011;72842;56.038;12.706;2024-01-30T07:50:30;37.63;;;17.13;;
83026;SDS011;72842;56.038;12.706;2024-01-30T07:52:56;33.72;;;15.70;;
83026;SDS011;72842;56.038;12.706;2024-01-30T07:55:22;32.88;;;15.98;;
83026;SDS011;72842;56.038;12.706;2024-01-30T07:57:51;34.90;;;14.98;;
83026;SDS011;72842;56.038;12.706;2024-01-30T08:00:17;34.13;;;15.70;;
83026;SDS011;72842;56.038;12.706;2024-01-30T08:02:44;30.75;;;14.98;;
83026;SDS011;72842;56.038;12.706;2024-01-30T08:05:10;36.50;;;16.40;;
83026;SDS011;72842;56.038;12.706;2024-01-30T08:07:36;34.58;;;15.63;;
83026;SDS011;72842;56.038;12.706;2024-01-30T08:10:02;34.75;;;15.38;;
83026;SDS011;72842;56.038;12.706;2024-01-30T08:12:27;31.58;;;14.48;;
83026;SDS011;72842;56.038;12.706;2024-01-30T08:14:53;37.88;;;15.05;;
83026;SDS011;72842;56.038;12.706;2024-01-30T08:17:18;32.25;;;15.52;;
83026;SDS011;72842;56.038;12.706;2024-01-30T08:19:43;33.88;;;14.68;;
83026;SDS011;72842;56.038;12.706;2024-01-30T08:22:09;30.95;;;14.93;;
83026;SDS011;72842;56.038;12.706;2024-01-30T08:24:34;34.38;;;15.88;;
83026;SDS011;72842;56.038;12.706;2024-01-30T08:27:00;31.85;;;13.90;;
83026;SDS011;72842;56.038;12.706;2024-01-30T08:29:27;30.15;;;15.27;;
83026;SDS011;72842;56.038;12.706;2024-01-30T08:31:52;32.47;;;15.70;;
83026;SDS011;72842;56.038;12.706;2024-01-30T08:34:20;28.30;;;14.27;;
83026;SDS011;72842;56.038;12.706;2024-01-30T08:36:46;32.30;;;14.10;;
83026;SDS011;72842;56.038;12.706;2024-01-30T08:39:11;29.42;;;14.57;;
83026;SDS011;72842;56.038;12.706;2024-01-30T08:41:37;35.08;;;15.43;;
83026;SDS011;72842;56.038;12.706;2024-01-30T08:44:02;29.10;;;14.68;;
83026;SDS011;72842;56.038;12.706;2024-01-30T08:46:29;32.83;;;15.70;;
83026;SDS011;72842;56.038;12.706;2024-01-30T08:48:55;28.67;;;14.38;;
83026;SDS011;72842;56.038;12.706;2024-01-30T08:51:21;31.90;;;15.07;;
83026;SDS011;72842;56.038;12.706;2024-01-30T08:53:47;26.80;;;13.45;;
83026;SDS011;72842;56.038;12.706;2024-01-30T08:56:12;28.30;;;14.40;;
83026;SDS011;72842;56.038;12.706;2024-01-30T08:58:38;33.40;;;15.23;;
83026;SDS011;72842;56.038;12.706;2024-01-30T09:01:04;33.72;;;15.35;;
83026;SDS011;72842;56.038;12.706;2024-01-30T09:03:30;32.13;;;15.27;;
83026;SDS011;72842;56.038;12.706;2024-01-30T09:05:56;31.10;;;15.40;;
83026;SDS011;72842;56.038;12.706;2024-01-30T09:08:21;30.10;;;13.65;;
83026;SDS011;72842;56.038;12.706;2024-01-30T09:10:47;28.45;;;13.35;;
83026;SDS011;72842;56.038;12.706;2024-01-30T09:13:13;29.10;;;14.65;;
83026;SDS011;72842;56.038;12.706;2024-01-30T09:15:38;29.73;;;14.57;;
83026;SDS011;72842;56.038;12.706;2024-01-30T09:18:03;32.42;;;13.88;;
83026;SDS011;72842;56.038;12.706;2024-01-30T09:20:29;34.92;;;15.35;;
83026;SDS011;72842;56.038;12.706;2024-01-30T09:22:54;33.42;;;15.48;;
83026;SDS011;72842;56.038;12.706;2024-01-30T09:25:20;34.25;;;14.90;;
83026;SDS011;72842;56.038;12.706;2024-01-30T09:27:46;32.03;;;15.43;;
83026;SDS011;72842;56.038;12.706;2024-01-30T09:30:11;33.83;;;15.02;;
83026;SDS011;72842;56.038;12.706;2024-01-30T09:32:39;37.60;;;15.68;;
83026;SDS011;72842;56.038;12.706;2024-01-30T09:35:05;29.80;;;13.90;;
83026;SDS011;72842;56.038;12.706;2024-01-30T09:37:31;35.95;;;16.23;;
83026;SDS011;72842;56.038;12.706;2024-01-30T09:39:56;35.83;;;16.05;;
83026;SDS011;72842;56.038;12.706;2024-01-30T09:42:34;33.22;;;15.23;;
83026;SDS011;72842;56.038;12.706;2024-01-30T09:45:04;29.40;;;15.25;;
83026;SDS011;72842;56.038;12.706;2024-01-30T09:47:36;30.40;;;14.68;;
83026;SDS011;72842;56.038;12.706;2024-01-30T09:50:07;31.20;;;14.75;;
83026;SDS011;72842;56.038;12.706;2024-01-30T09:52:34;30.83;;;15.68;;
83026;SDS011;72842;56.038;12.706;2024-01-30T09:55:00;30.25;;;15.70;;
83026;SDS011;72842;56.038;12.706;2024-01-30T09:57:26;28.45;;;13.27;;
83026;SDS011;72842;56.038;12.706;2024-01-30T09:59:52;31.65;;;14.38;;
83026;SDS011;72842;56.038;12.706;2024-01-30T10:02:19;30.88;;;13.48;;
83026;SDS011;72842;56.038;12.706;2024-01-30T10:04:51;25.02;;;12.43;;
83026;SDS011;72842;56.038;12.706;2024-01-30T10:07:17;24.75;;;11.98;;
83026;SDS011;72842;56.038;12.706;2024-01-30T10:09:43;29.00;;;13.40;;
83026;SDS011;72842;56.038;12.706;2024-01-30T10:12:09;25.63;;;12.65;;
83026;SDS011;72842;56.038;12.706;2024-01-30T10:14:41;24.45;;;11.70;;
83026;SDS011;72842;56.038;12.706;2024-01-30T10:17:08;26.50;;;12.02;;
83026;SDS011;72842;56.038;12.706;2024-01-30T10:19:34;24.90;;;11.77;;
83026;SDS011;72842;56.038;12.706;2024-01-30T10:22:00;23.27;;;11.75;;
83026;SDS011;72842;56.038;12.706;2024-01-30T10:24:26;20.52;;;10.15;;
83026;SDS011;72842;56.038;12.706;2024-01-30T10:26:53;23.20;;;12.10;;
83026;SDS011;72842;56.038;12.706;2024-01-30T10:29:18;20.45;;;11.05;;
83026;SDS011;72842;56.038;12.706;2024-01-30T10:31:44;20.10;;;10.10;;
83026;SDS011;72842;56.038;12.706;2024-01-30T10:34:09;17.42;;;9.65;;
83026;SDS011;72842;56.038;12.706;2024-01-30T10:36:38;20.10;;;10.43;;
83026;SDS011;72842;56.038;12.706;2024-01-30T10:39:08;19.17;;;9.85;;
83026;SDS011;72842;56.038;12.706;2024-01-30T10:41:35;16.48;;;8.93;;
83026;SDS011;72842;56.038;12.706;2024-01-30T10:44:09;13.38;;;8.43;;
83026;SDS011;72842;56.038;12.706;2024-01-30T10:46:35;15.65;;;7.97;;
83026;SDS011;72842;56.038;12.706;2024-01-30T10:49:03;15.85;;;7.97;;
83026;SDS011;72842;56.038;12.706;2024-01-30T10:51:29;16.65;;;8.85;;
83026;SDS011;72842;56.038;12.706;2024-01-30T10:53:57;13.93;;;7.82;;
83026;SDS011;72842;56.038;12.706;2024-01-30T10:56:23;13.30;;;7.75;;
83026;SDS011;72842;56.038;12.706;2024-01-30T10:58:50;14.00;;;8.25;;
83026;SDS011;72842;56.038;12.706;2024-01-30T11:01:22;13.02;;;7.00;;
83026;SDS011;72842;56.038;12.706;2024-01-30T11:03:51;15.40;;;7.20;;
83026;SDS011;72842;56.038;12.706;2024-01-30T11:06:17;13.90;;;6.97;;
83026;SDS011;72842;56.038;12.706;2024-01-30T11:08:44;12.20;;;6.60;;
83026;SDS011;72842;56.038;12.706;2024-01-30T11:11:24;13.52;;;7.57;;
83026;SDS011;72842;56.038;12.706;2024-01-30T11:13:50;13.35;;;6.93;;
83026;SDS011;72842;56.038;12.706;2024-01-30T11:16:15;13.65;;;6.45;;
83026;SDS011;72842;56.038;12.706;2024-01-30T11:18:40;10.68;;;6.10;;
83026;SDS011;72842;56.038;12.706;2024-01-30T11:21:06;9.82;;;6.07;;
83026;SDS011;72842;56.038;12.706;2024-01-30T11:23:32;9.77;;;5.60;;
83026;SDS011;72842;56.038;12.706;2024-01-30T11:25:58;9.82;;;5.68;;
83026;SDS011;72842;56.038;12.706;2024-01-30T11:28:25;9.57;;;5.25;;
83026;SDS011;72842;56.038;12.706;2024-01-30T11:31:04;8.50;;;4.72;;
83026;SDS011;72842;56.038;12.706;2024-01-30T11:33:32;8.65;;;4.45;;
83026;SDS011;72842;56.038;12.706;2024-01-30T11:35:59;9.05;;;4.63;;
83026;SDS011;72842;56.038;12.706;2024-01-30T11:38:26;8.77;;;5.07;;
83026;SDS011;72842;56.038;12.706;2024-01-30T11:40:55;8.43;;;4.32;;
83026;SDS011;72842;56.038;12.706;2024-01-30T11:43:22;7.40;;;4.00;;
83026;SDS011;72842;56.038;12.706;2024-01-30T11:45:48;7.22;;;4.00;;
83026;SDS011;72842;56.038;12.706;2024-01-30T11:48:14;6.68;;;4.55;;
83026;SDS011;72842;56.038;12.706;2024-01-30T11:50:40;8.00;;;5.00;;
83026;SDS011;72842;56.038;12.706;2024-01-30T11:53:05;7.43;;;4.40;;
83026;SDS011;72842;56.038;12.706;2024-01-30T11:55:31;7.22;;;4.68;;
83026;SDS011;72842;56.038;12.706;2024-01-30T11:57:57;8.00;;;4.95;;
83026;SDS011;72842;56.038;12.706;2024-01-30T12:00:23;6.88;;;4.70;;
83026;SDS011;72842;56.038;12.706;2024-01-30T12:02:49;9.10;;;5.15;;
83026;SDS011;72842;56.038;12.706;2024-01-30T12:05:16;7.10;;;4.25;;
83026;SDS011;72842;56.038;12.706;2024-01-30T12:07:44;8.07;;;4.50;;
83026;SDS011;72842;56.038;12.706;2024-01-30T12:10:13;7.43;;;4.20;;
83026;SDS011;72842;56.038;12.706;2024-01-30T12:12:39;8.63;;;4.55;;
83026;SDS011;72842;56.038;12.706;2024-01-30T12:15:07;6.93;;;4.50;;
83026;SDS011;72842;56.038;12.706;2024-01-30T12:17:33;7.75;;;5.00;;
83026;SDS011;72842;56.038;12.706;2024-01-30T12:22:37;8.25;;;4.65;;
83026;SDS011;72842;56.038;12.706;2024-01-30T12:27:36;6.90;;;4.13;;
83026;SDS011;72842;56.038;12.706;2024-01-30T12:30:09;7.88;;;4.60;;
83026;SDS011;72842;56.038;12.706;2024-01-30T12:32:36;7.78;;;4.72;;
83026;SDS011;72842;56.038;12.706;2024-01-30T12:35:02;8.75;;;5.38;;
83026;SDS011;72842;56.038;12.706;2024-01-30T12:37:29;8.60;;;5.05;;
83026;SDS011;72842;56.038;12.706;2024-01-30T12:39:55;9.48;;;5.13;;
83026;SDS011;72842;56.038;12.706;2024-01-30T12:42:21;7.55;;;4.45;;
83026;SDS011;72842;56.038;12.706;2024-01-30T12:44:47;8.38;;;5.40;;
83026;SDS011;72842;56.038;12.706;2024-01-30T12:47:14;9.75;;;5.22;;
83026;SDS011;72842;56.038;12.706;2024-01-30T12:49:41;9.40;;;5.65;;
83026;SDS011;72842;56.038;12.706;2024-01-30T12:52:08;8.57;;;5.32;;
83026;SDS011;72842;56.038;12.706;2024-01-30T12:54:33;8.18;;;4.97;;
83026;SDS011;72842;56.038;12.706;2024-01-30T12:56:59;7.30;;;4.55;;
83026;SDS011;72842;56.038;12.706;2024-01-30T12:59:24;8.27;;;5.07;;
83026;SDS011;72842;56.038;12.706;2024-01-30T13:01:49;9.00;;;5.20;;
83026;SDS011;72842;56.038;12.706;2024-01-30T13:04:15;9.10;;;5.30;;
83026;SDS011;72842;56.038;12.706;2024-01-30T13:06:41;8.15;;;5.15;;
83026;SDS011;72842;56.038;12.706;2024-01-30T13:09:07;8.75;;;5.03;;
83026;SDS011;72842;56.038;12.706;2024-01-30T13:11:32;6.60;;;4.72;;
83026;SDS011;72842;56.038;12.706;2024-01-30T13:13:58;9.32;;;5.43;;
83026;SDS011;72842;56.038;12.706;2024-01-30T13:16:23;7.88;;;4.90;;
83026;SDS011;72842;56.038;12.706;2024-01-30T13:18:48;7.15;;;4.80;;
83026;SDS011;72842;56.038;12.706;2024-01-30T13:21:14;7.93;;;4.70;;
83026;SDS011;72842;56.038;12.706;2024-01-30T13:23:40;7.32;;;4.43;;
83026;SDS011;72842;56.038;12.706;2024-01-30T13:26:05;8.93;;;5.22;;
83026;SDS011;72842;56.038;12.706;2024-01-30T13:28:32;8.82;;;5.28;;
83026;SDS011;72842;56.038;12.706;2024-01-30T13:30:58;7.28;;;4.43;;
83026;SDS011;72842;56.038;12.706;2024-01-30T13:33:23;7.20;;;4.40;;
83026;SDS011;72842;56.038;12.706;2024-01-30T13:35:49;6.85;;;4.30;;
83026;SDS011;72842;56.038;12.706;2024-01-30T13:38:15;6.15;;;4.57;;
83026;SDS011;72842;56.038;12.706;2024-01-30T13:40:40;7.43;;;4.65;;
83026;SDS011;72842;56.038;12.706;2024-01-30T13:43:06;6.78;;;4.68;;
83026;SDS011;72842;56.038;12.706;2024-01-30T13:45:31;6.20;;;4.63;;
83026;SDS011;72842;56.038;12.706;2024-01-30T13:47:57;7.30;;;4.60;;
83026;SDS011;72842;56.038;12.706;2024-01-30T13:50:24;5.38;;;4.07;;
83026;SDS011;72842;56.038;12.706;2024-01-30T13:52:49;7.78;;;4.90;;
83026;SDS011;72842;56.038;12.706;2024-01-30T13:55:15;5.35;;;4.18;;
83026;SDS011;72842;56.038;12.706;2024-01-30T13:57:40;6.40;;;4.43;;
83026;SDS011;72842;56.038;12.706;2024-01-30T14:00:06;5.57;;;4.28;;
83026;SDS011;72842;56.038;12.706;2024-01-30T14:02:32;6.25;;;4.20;;
83026;SDS011;72842;56.038;12.706;2024-01-30T14:04:58;7.63;;;5.20;;
83026;SDS011;72842;56.038;12.706;2024-01-30T14:07:23;6.95;;;4.22;;
83026;SDS011;72842;56.038;12.706;2024-01-30T14:09:49;8.43;;;4.70;;
83026;SDS011;72842;56.038;12.706;2024-01-30T14:12:15;6.50;;;4.55;;
83026;SDS011;72842;56.038;12.706;2024-01-30T14:14:40;7.40;;;4.90;;
83026;SDS011;72842;56.038;12.706;2024-01-30T14:17:06;6.07;;;4.43;;